sensor_id;sensor_type;location;lat;lon;timestamp;temperature;humidity
20483;DHT22;10400;53.198;6.592;2023-07-20T00:01:31;16.60;99.90
20483;DHT22;10400;53.198;6.592;2023-07-20T00:03:57;16.60;99.90
20483;DHT22;10400;53.198;6.592;2023-07-20T00:06:24;16.60;99.90
20483;DHT22;10400;53.198;6.592;2023-07-20T00:08:50;16.70;99.90
20483;DHT22;10400;53.198;6.592;2023-07-20T00:11:16;16.70;99.90
20483;DHT22;10400;53.198;6.592;2023-07-20T00:13:42;16.60;99.90
20483;DHT22;10400;53.198;6.592;2023-07-20T00:16:07;16.60;99.90
20483;DHT22;10400;53.198;6.592;2023-07-20T00:18:33;16.60;99.90
20483;DHT22;10400;53.198;6.592;2023-07-20T00:20:59;16.60;99.90
20483;DHT22;10400;53.198;6.592;2023-07-20T00:23:28;16.60;99.90
20483;DHT22;10400;53.198;6.592;2023-07-20T00:25:53;16.60;99.90
20483;DHT22;10400;53.198;6.592;2023-07-20T00:28:19;16.50;99.90
20483;DHT22;10400;53.198;6.592;2023-07-20T00:30:45;16.50;99.90
20483;DHT22;10400;53.198;6.592;2023-07-20T00:33:12;16.50;99.90
20483;DHT22;10400;53.198;6.592;2023-07-20T00:35:38;16.40;99.90
20483;DHT22;10400;53.198;6.592;2023-07-20T00:38:05;16.40;99.90
20483;DHT22;10400;53.198;6.592;2023-07-20T00:40:40;16.40;99.90
20483;DHT22;10400;53.198;6.592;2023-07-20T00:43:07;16.40;99.90
20483;DHT22;10400;53.198;6.592;2023-07-20T00:45:33;16.30;99.90
20483;DHT22;10400;53.198;6.592;2023-07-20T00:48:01;16.20;99.90
20483;DHT22;10400;53.198;6.592;2023-07-20T00:50:27;16.20;99.90
20483;DHT22;10400;53.198;6.592;2023-07-20T00:52:55;16.10;99.90
20483;DHT22;10400;53.198;6.592;2023-07-20T00:55:21;16.10;99.90
20483;DHT22;10400;53.198;6.592;2023-07-20T00:57:47;15.90;99.90
20483;DHT22;10400;53.198;6.592;2023-07-20T01:00:14;15.90;99.90
20483;DHT22;10400;53.198;6.592;2023-07-20T01:02:40;15.90;99.90
20483;DHT22;10400;53.198;6.592;2023-07-20T01:05:06;16.00;99.90
20483;DHT22;10400;53.198;6.592;2023-07-20T01:07:39;15.90;99.90
20483;DHT22;10400;53.198;6.592;2023-07-20T01:10:37;15.90;99.90
20483;DHT22;10400;53.198;6.592;2023-07-20T01:13:07;15.90;99.90
20483;DHT22;10400;53.198;6.592;2023-07-20T01:15:34;15.90;99.90
20483;DHT22;10400;53.198;6.592;2023-07-20T01:18:00;15.80;99.90
20483;DHT22;10400;53.198;6.592;2023-07-20T01:20:31;15.80;99.90
20483;DHT22;10400;53.198;6.592;2023-07-20T01:31:18;15.70;99.90
20483;DHT22;10400;53.198;6.592;2023-07-20T01:33:46;15.70;99.90
20483;DHT22;10400;53.198;6.592;2023-07-20T01:36:14;15.70;99.90
20483;DHT22;10400;53.198;6.592;2023-07-20T01:38:42;15.70;99.90
20483;DHT22;10400;53.198;6.592;2023-07-20T01:41:08;15.70;99.90
20483;DHT22;10400;53.198;6.592;2023-07-20T01:43:34;15.60;99.90
20483;DHT22;10400;53.198;6.592;2023-07-20T01:46:00;15.60;99.90
20483;DHT22;10400;53.198;6.592;2023-07-20T01:48:25;15.60;99.90
20483;DHT22;10400;53.198;6.592;2023-07-20T01:50:52;15.50;99.90
20483;DHT22;10400;53.198;6.592;2023-07-20T01:53:18;15.50;99.90
20483;DHT22;10400;53.198;6.592;2023-07-20T01:55:43;15.40;99.90
20483;DHT22;10400;53.198;6.592;2023-07-20T01:58:09;15.40;99.90
20483;DHT22;10400;53.198;6.592;2023-07-20T02:00:37;15.30;99.90
20483;DHT22;10400;53.198;6.592;2023-07-20T02:03:03;15.40;99.90
20483;DHT22;10400;53.198;6.592;2023-07-20T02:05:28;15.30;99.90
20483;DHT22;10400;53.198;6.592;2023-07-20T02:07:54;15.30;99.90
20483;DHT22;10400;53.198;6.592;2023-07-20T02:10:20;15.20;99.90
20483;DHT22;10400;53.198;6.592;2023-07-20T02:12:46;15.20;99.90
20483;DHT22;10400;53.198;6.592;2023-07-20T02:15:11;15.20;99.90
20483;DHT22;10400;53.198;6.592;2023-07-20T02:17:39;15.20;99.90
20483;DHT22;10400;53.198;6.592;2023-07-20T02:20:07;15.20;99.90
20483;DHT22;10400;53.198;6.592;2023-07-20T02:22:36;15.20;99.90
20483;DHT22;10400;53.198;6.592;2023-07-20T02:25:02;15.20;99.90
20483;DHT22;10400;53.198;6.592;2023-07-20T02:27:27;15.10;99.90
20483;DHT22;10400;53.198;6.592;2023-07-20T02:29:53;15.10;99.90
20483;DHT22;10400;53.198;6.592;2023-07-20T02:32:18;15.10;99.90
20483;DHT22;10400;53.198;6.592;2023-07-20T02:34:44;15.00;99.90
20483;DHT22;10400;53.198;6.592;2023-07-20T02:37:10;15.00;99.90
20483;DHT22;10400;53.198;6.592;2023-07-20T02:39:38;15.00;99.90
20483;DHT22;10400;53.198;6.592;2023-07-20T02:42:04;15.00;99.90
20483;DHT22;10400;53.198;6.592;2023-07-20T02:44:30;15.00;99.90
20483;DHT22;10400;53.198;6.592;2023-07-20T02:46:56;14.90;99.90
20483;DHT22;10400;53.198;6.592;2023-07-20T02:49:21;14.90;99.90
20483;DHT22;10400;53.198;6.592;2023-07-20T02:51:47;14.90;99.90
20483;DHT22;10400;53.198;6.592;2023-07-20T02:54:13;14.80;99.90
20483;DHT22;10400;53.198;6.592;2023-07-20T02:56:38;14.80;99.90
20483;DHT22;10400;53.198;6.592;2023-07-20T02:59:04;14.80;99.90
20483;DHT22;10400;53.198;6.592;2023-07-20T03:01:29;14.80;99.90
20483;DHT22;10400;53.198;6.592;2023-07-20T03:03:55;14.80;99.90
20483;DHT22;10400;53.198;6.592;2023-07-20T03:06:21;14.70;99.90
20483;DHT22;10400;53.198;6.592;2023-07-20T03:08:47;14.80;99.90
20483;DHT22;10400;53.198;6.592;2023-07-20T03:11:17;14.70;99.90
20483;DHT22;10400;53.198;6.592;2023-07-20T03:13:44;14.60;99.90
20483;DHT22;10400;53.198;6.592;2023-07-20T03:16:11;14.60;99.90
20483;DHT22;10400;53.198;6.592;2023-07-20T03:18:38;14.60;99.90
20483;DHT22;10400;53.198;6.592;2023-07-20T03:21:04;14.50;99.90
20483;DHT22;10400;53.198;6.592;2023-07-20T03:23:31;14.50;99.90
20483;DHT22;10400;53.198;6.592;2023-07-20T03:25:56;14.40;99.90
20483;DHT22;10400;53.198;6.592;2023-07-20T03:28:22;14.40;99.90
20483;DHT22;10400;53.198;6.592;2023-07-20T03:30:53;14.40;99.90
20483;DHT22;10400;53.198;6.592;2023-07-20T03:33:20;14.40;99.90
20483;DHT22;10400;53.198;6.592;2023-07-20T03:35:45;14.30;99.90
20483;DHT22;10400;53.198;6.592;2023-07-20T03:38:11;14.30;99.90
20483;DHT22;10400;53.198;6.592;2023-07-20T03:40:37;14.30;99.90
20483;DHT22;10400;53.198;6.592;2023-07-20T03:43:02;14.20;99.90
20483;DHT22;10400;53.198;6.592;2023-07-20T03:45:28;14.20;99.90
20483;DHT22;10400;53.198;6.592;2023-07-20T03:47:54;14.20;99.90
20483;DHT22;10400;53.198;6.592;2023-07-20T03:50:19;14.10;99.90
20483;DHT22;10400;53.198;6.592;2023-07-20T03:52:45;14.10;99.90
20483;DHT22;10400;53.198;6.592;2023-07-20T03:55:11;14.10;99.90
20483;DHT22;10400;53.198;6.592;2023-07-20T03:57:36;14.20;99.90
20483;DHT22;10400;53.198;6.592;2023-07-20T04:00:02;14.20;99.90
20483;DHT22;10400;53.198;6.592;2023-07-20T04:02:32;14.10;99.90
20483;DHT22;10400;53.198;6.592;2023-07-20T04:04:57;14.10;99.90
20483;DHT22;10400;53.198;6.592;2023-07-20T04:07:23;14.10;99.90
20483;DHT22;10400;53.198;6.592;2023-07-20T04:09:49;14.10;99.90
20483;DHT22;10400;53.198;6.592;2023-07-20T04:12:14;14.10;99.90
20483;DHT22;10400;53.198;6.592;2023-07-20T04:14:40;14.10;99.90
20483;DHT22;10400;53.198;6.592;2023-07-20T04:17:06;14.20;99.90
20483;DHT22;10400;53.198;6.592;2023-07-20T04:19:31;14.20;99.90
20483;DHT22;10400;53.198;6.592;2023-07-20T04:21:57;14.20;99.90
20483;DHT22;10400;53.198;6.592;2023-07-20T04:24:22;14.20;99.90
20483;DHT22;10400;53.198;6.592;2023-07-20T04:26:48;14.20;99.90
20483;DHT22;10400;53.198;6.592;2023-07-20T04:29:14;14.20;99.90
20483;DHT22;10400;53.198;6.592;2023-07-20T04:31:39;14.30;99.90
20483;DHT22;10400;53.198;6.592;2023-07-20T04:34:05;14.30;99.90
20483;DHT22;10400;53.198;6.592;2023-07-20T04:36:30;14.40;99.90
20483;DHT22;10400;53.198;6.592;2023-07-20T04:38:56;14.30;99.90
20483;DHT22;10400;53.198;6.592;2023-07-20T04:41:22;14.30;99.90
20483;DHT22;10400;53.198;6.592;2023-07-20T04:43:48;14.20;99.90
20483;DHT22;10400;53.198;6.592;2023-07-20T04:46:14;14.20;99.90
20483;DHT22;10400;53.198;6.592;2023-07-20T04:48:39;14.30;99.90
20483;DHT22;10400;53.198;6.592;2023-07-20T04:51:06;14.30;99.90
20483;DHT22;10400;53.198;6.592;2023-07-20T04:53:31;14.40;99.90
20483;DHT22;10400;53.198;6.592;2023-07-20T04:55:57;14.40;99.90
20483;DHT22;10400;53.198;6.592;2023-07-20T04:58:23;14.40;99.90
20483;DHT22;10400;53.198;6.592;2023-07-20T05:00:49;14.40;99.90
20483;DHT22;10400;53.198;6.592;2023-07-20T05:03:15;14.50;99.90
20483;DHT22;10400;53.198;6.592;2023-07-20T05:05:41;14.60;99.90
20483;DHT22;10400;53.198;6.592;2023-07-20T05:08:06;14.80;99.90
20483;DHT22;10400;53.198;6.592;2023-07-20T05:10:32;14.90;99.90
20483;DHT22;10400;53.198;6.592;2023-07-20T05:12:59;15.10;99.90
20483;DHT22;10400;53.198;6.592;2023-07-20T05:15:25;15.20;99.90
20483;DHT22;10400;53.198;6.592;2023-07-20T05:17:51;15.30;99.90
20483;DHT22;10400;53.198;6.592;2023-07-20T05:20:16;15.20;99.90
20483;DHT22;10400;53.198;6.592;2023-07-20T05:22:42;15.30;99.90
20483;DHT22;10400;53.198;6.592;2023-07-20T05:25:09;15.30;99.90
20483;DHT22;10400;53.198;6.592;2023-07-20T05:27:39;15.40;99.90
20483;DHT22;10400;53.198;6.592;2023-07-20T05:30:08;15.50;99.90
20483;DHT22;10400;53.198;6.592;2023-07-20T05:32:34;15.50;99.90
20483;DHT22;10400;53.198;6.592;2023-07-20T05:34:59;15.70;99.90
20483;DHT22;10400;53.198;6.592;2023-07-20T05:37:25;15.70;99.90
20483;DHT22;10400;53.198;6.592;2023-07-20T05:39:51;15.80;99.90
20483;DHT22;10400;53.198;6.592;2023-07-20T05:42:16;15.90;99.90
20483;DHT22;10400;53.198;6.592;2023-07-20T05:44:42;16.00;99.90
20483;DHT22;10400;53.198;6.592;2023-07-20T05:47:08;16.20;99.90
20483;DHT22;10400;53.198;6.592;2023-07-20T05:49:34;16.20;99.90
20483;DHT22;10400;53.198;6.592;2023-07-20T05:52:00;16.30;99.90
20483;DHT22;10400;53.198;6.592;2023-07-20T05:54:26;16.30;99.90
20483;DHT22;10400;53.198;6.592;2023-07-20T05:56:52;16.30;99.90
20483;DHT22;10400;53.198;6.592;2023-07-20T05:59:18;16.50;99.90
20483;DHT22;10400;53.198;6.592;2023-07-20T06:01:45;16.50;99.90
20483;DHT22;10400;53.198;6.592;2023-07-20T06:04:11;16.60;99.90
20483;DHT22;10400;53.198;6.592;2023-07-20T06:06:36;16.70;99.90
20483;DHT22;10400;53.198;6.592;2023-07-20T06:09:02;16.70;99.90
20483;DHT22;10400;53.198;6.592;2023-07-20T06:11:35;16.80;99.90
20483;DHT22;10400;53.198;6.592;2023-07-20T06:14:01;16.80;99.90
20483;DHT22;10400;53.198;6.592;2023-07-20T06:16:30;16.90;99.90
20483;DHT22;10400;53.198;6.592;2023-07-20T06:18:55;17.00;99.90
20483;DHT22;10400;53.198;6.592;2023-07-20T06:21:21;17.00;99.90
20483;DHT22;10400;53.198;6.592;2023-07-20T06:23:50;17.20;99.90
20483;DHT22;10400;53.198;6.592;2023-07-20T06:26:15;17.30;99.90
20483;DHT22;10400;53.198;6.592;2023-07-20T06:28:41;17.30;99.90
20483;DHT22;10400;53.198;6.592;2023-07-20T06:31:07;17.40;99.90
20483;DHT22;10400;53.198;6.592;2023-07-20T06:33:32;17.30;99.90
20483;DHT22;10400;53.198;6.592;2023-07-20T06:36:00;17.60;99.90
20483;DHT22;10400;53.198;6.592;2023-07-20T06:38:25;17.70;99.90
20483;DHT22;10400;53.198;6.592;2023-07-20T06:40:51;17.80;97.70
20483;DHT22;10400;53.198;6.592;2023-07-20T06:43:17;17.70;85.90
20483;DHT22;10400;53.198;6.592;2023-07-20T06:45:43;17.60;80.20
20483;DHT22;10400;53.198;6.592;2023-07-20T06:48:09;17.60;95.10
20483;DHT22;10400;53.198;6.592;2023-07-20T06:50:35;17.70;95.20
20483;DHT22;10400;53.198;6.592;2023-07-20T06:53:00;17.80;94.70
20483;DHT22;10400;53.198;6.592;2023-07-20T06:55:29;17.70;82.80
20483;DHT22;10400;53.198;6.592;2023-07-20T06:57:55;17.80;88.30
20483;DHT22;10400;53.198;6.592;2023-07-20T07:00:20;17.90;89.90
20483;DHT22;10400;53.198;6.592;2023-07-20T07:02:46;18.00;90.80
20483;DHT22;10400;53.198;6.592;2023-07-20T07:05:12;17.90;84.70
20483;DHT22;10400;53.198;6.592;2023-07-20T07:07:39;17.80;65.10
20483;DHT22;10400;53.198;6.592;2023-07-20T07:10:06;17.60;59.90
20483;DHT22;10400;53.198;6.592;2023-07-20T07:12:32;17.60;65.80
20483;DHT22;10400;53.198;6.592;2023-07-20T07:14:57;17.60;66.70
20483;DHT22;10400;53.198;6.592;2023-07-20T07:17:23;17.60;73.80
20483;DHT22;10400;53.198;6.592;2023-07-20T07:19:49;17.80;71.90
20483;DHT22;10400;53.198;6.592;2023-07-20T07:22:15;17.70;65.30
20483;DHT22;10400;53.198;6.592;2023-07-20T07:24:41;17.50;31.50
20483;DHT22;10400;53.198;6.592;2023-07-20T07:27:08;17.40;30.60
20483;DHT22;10400;53.198;6.592;2023-07-20T07:29:34;17.20;39.50
20483;DHT22;10400;53.198;6.592;2023-07-20T07:32:00;17.10;37.90
20483;DHT22;10400;53.198;6.592;2023-07-20T07:34:27;17.10;49.50
20483;DHT22;10400;53.198;6.592;2023-07-20T07:36:53;17.40;51.40
20483;DHT22;10400;53.198;6.592;2023-07-20T07:39:19;17.70;6.60
20483;DHT22;10400;53.198;6.592;2023-07-20T07:41:44;18.10;1.40
20483;DHT22;10400;53.198;6.592;2023-07-20T07:44:10;18.50;1.00
20483;DHT22;10400;53.198;6.592;2023-07-20T07:46:36;18.50;1.00
20483;DHT22;10400;53.198;6.592;2023-07-20T07:49:01;18.40;1.00
20483;DHT22;10400;53.198;6.592;2023-07-20T07:51:27;18.20;1.00
20483;DHT22;10400;53.198;6.592;2023-07-20T07:53:53;17.90;1.00
20483;DHT22;10400;53.198;6.592;2023-07-20T07:56:18;17.60;1.00
20483;DHT22;10400;53.198;6.592;2023-07-20T07:58:49;17.40;8.70
20483;DHT22;10400;53.198;6.592;2023-07-20T08:01:16;17.40;21.50
20483;DHT22;10400;53.198;6.592;2023-07-20T08:03:44;17.60;1.00
20483;DHT22;10400;53.198;6.592;2023-07-20T08:06:15;18.00;6.80
20483;DHT22;10400;53.198;6.592;2023-07-20T08:08:41;18.50;1.00
20483;DHT22;10400;53.198;6.592;2023-07-20T08:11:08;18.80;1.00
20483;DHT22;10400;53.198;6.592;2023-07-20T08:13:34;18.70;1.00
20483;DHT22;10400;53.198;6.592;2023-07-20T08:16:01;18.60;1.00
20483;DHT22;10400;53.198;6.592;2023-07-20T08:18:30;18.50;1.00
20483;DHT22;10400;53.198;6.592;2023-07-20T08:20:56;18.40;1.00
20483;DHT22;10400;53.198;6.592;2023-07-20T08:23:22;18.40;1.00
20483;DHT22;10400;53.198;6.592;2023-07-20T08:25:48;18.20;1.00
20483;DHT22;10400;53.198;6.592;2023-07-20T08:28:14;18.20;1.00
20483;DHT22;10400;53.198;6.592;2023-07-20T08:30:45;18.10;1.00
20483;DHT22;10400;53.198;6.592;2023-07-20T08:33:13;18.30;1.00
20483;DHT22;10400;53.198;6.592;2023-07-20T08:35:39;18.60;1.00
20483;DHT22;10400;53.198;6.592;2023-07-20T08:38:05;18.90;1.00
20483;DHT22;10400;53.198;6.592;2023-07-20T08:40:40;19.20;1.00
20483;DHT22;10400;53.198;6.592;2023-07-20T08:43:06;19.40;99.90
20483;DHT22;10400;53.198;6.592;2023-07-20T08:45:36;19.70;99.90
20483;DHT22;10400;53.198;6.592;2023-07-20T08:48:05;19.80;1.00
20483;DHT22;10400;53.198;6.592;2023-07-20T08:50:32;19.80;97.30
20483;DHT22;10400;53.198;6.592;2023-07-20T08:52:58;19.50;99.90
20483;DHT22;10400;53.198;6.592;2023-07-20T08:55:26;19.30;1.00
20483;DHT22;10400;53.198;6.592;2023-07-20T08:57:57;19.20;99.90
20483;DHT22;10400;53.198;6.592;2023-07-20T09:00:24;19.40;28.40
20483;DHT22;10400;53.198;6.592;2023-07-20T09:02:52;19.70;1.00
20483;DHT22;10400;53.198;6.592;2023-07-20T09:05:22;19.90;24.80
20483;DHT22;10400;53.198;6.592;2023-07-20T09:07:48;20.20;92.40
20483;DHT22;10400;53.198;6.592;2023-07-20T09:10:14;20.20;1.00
20483;DHT22;10400;53.198;6.592;2023-07-20T09:12:41;19.80;99.90
20483;DHT22;10400;53.198;6.592;2023-07-20T09:15:08;19.80;99.90
20483;DHT22;10400;53.198;6.592;2023-07-20T09:17:34;19.90;99.90
20483;DHT22;10400;53.198;6.592;2023-07-20T09:20:04;20.10;1.00
20483;DHT22;10400;53.198;6.592;2023-07-20T09:22:33;20.40;1.00
20483;DHT22;10400;53.198;6.592;2023-07-20T09:24:59;20.80;1.00
20483;DHT22;10400;53.198;6.592;2023-07-20T09:27:39;20.40;1.00
20483;DHT22;10400;53.198;6.592;2023-07-20T09:30:05;20.10;99.90
20483;DHT22;10400;53.198;6.592;2023-07-20T09:32:49;19.70;1.00
20483;DHT22;10400;53.198;6.592;2023-07-20T09:35:20;19.90;1.00
20483;DHT22;10400;53.198;6.592;2023-07-20T09:37:48;20.20;99.90
20483;DHT22;10400;53.198;6.592;2023-07-20T09:40:18;20.70;1.00
20483;DHT22;10400;53.198;6.592;2023-07-20T09:42:44;20.40;99.90
20483;DHT22;10400;53.198;6.592;2023-07-20T09:45:10;20.10;99.90
20483;DHT22;10400;53.198;6.592;2023-07-20T09:47:37;19.80;99.90
20483;DHT22;10400;53.198;6.592;2023-07-20T09:50:04;19.90;95.00
20483;DHT22;10400;53.198;6.592;2023-07-20T09:52:30;20.40;1.00
20483;DHT22;10400;53.198;6.592;2023-07-20T09:54:57;20.90;1.00
20483;DHT22;10400;53.198;6.592;2023-07-20T09:57:25;21.10;99.90
20483;DHT22;10400;53.198;6.592;2023-07-20T09:59:51;21.30;1.00
20483;DHT22;10400;53.198;6.592;2023-07-20T10:02:32;21.40;1.00
20483;DHT22;10400;53.198;6.592;2023-07-20T10:05:02;20.80;1.00
20483;DHT22;10400;53.198;6.592;2023-07-20T10:07:30;20.40;1.00
20483;DHT22;10400;53.198;6.592;2023-07-20T10:09:56;20.20;99.90
20483;DHT22;10400;53.198;6.592;2023-07-20T10:12:25;20.20;99.90
20483;DHT22;10400;53.198;6.592;2023-07-20T10:15:59;20.50;1.00
20483;DHT22;10400;53.198;6.592;2023-07-20T10:18:30;20.90;1.00
20483;DHT22;10400;53.198;6.592;2023-07-20T10:20:59;20.90;99.90
20483;DHT22;10400;53.198;6.592;2023-07-20T10:23:28;21.00;1.00
20483;DHT22;10400;53.198;6.592;2023-07-20T10:25:57;21.30;99.90
20483;DHT22;10400;53.198;6.592;2023-07-20T10:28:23;21.50;99.90
20483;DHT22;10400;53.198;6.592;2023-07-20T10:30:50;21.60;99.90
20483;DHT22;10400;53.198;6.592;2023-07-20T10:33:17;21.90;1.00
20483;DHT22;10400;53.198;6.592;2023-07-20T10:35:58;22.20;1.00
20483;DHT22;10400;53.198;6.592;2023-07-20T10:41:16;22.00;1.00
20483;DHT22;10400;53.198;6.592;2023-07-20T10:43:45;21.40;1.00
20483;DHT22;10400;53.198;6.592;2023-07-20T10:46:11;21.20;78.50
20483;DHT22;10400;53.198;6.592;2023-07-20T10:49:01;21.50;99.90
20483;DHT22;10400;53.198;6.592;2023-07-20T10:51:28;21.50;1.00
20483;DHT22;10400;53.198;6.592;2023-07-20T10:53:55;21.40;1.00
20483;DHT22;10400;53.198;6.592;2023-07-20T10:56:26;21.80;1.00
20483;DHT22;10400;53.198;6.592;2023-07-20T10:59:00;22.30;1.00
20483;DHT22;10400;53.198;6.592;2023-07-20T11:01:30;22.40;1.00
20483;DHT22;10400;53.198;6.592;2023-07-20T11:03:59;21.90;1.00
20483;DHT22;10400;53.198;6.592;2023-07-20T11:09:04;21.30;1.00
20483;DHT22;10400;53.198;6.592;2023-07-20T11:11:33;21.80;1.00
20483;DHT22;10400;53.198;6.592;2023-07-20T11:14:01;22.10;1.00
20483;DHT22;10400;53.198;6.592;2023-07-20T11:16:47;21.90;1.00
20483;DHT22;10400;53.198;6.592;2023-07-20T11:19:22;22.10;1.00
20483;DHT22;10400;53.198;6.592;2023-07-20T11:21:53;22.20;1.00
20483;DHT22;10400;53.198;6.592;2023-07-20T11:24:19;22.20;1.00
20483;DHT22;10400;53.198;6.592;2023-07-20T11:26:47;22.20;1.00
20483;DHT22;10400;53.198;6.592;2023-07-20T11:29:14;22.20;1.00
20483;DHT22;10400;53.198;6.592;2023-07-20T11:31:41;21.90;1.00
20483;DHT22;10400;53.198;6.592;2023-07-20T11:34:11;21.60;1.00
20483;DHT22;10400;53.198;6.592;2023-07-20T11:36:39;21.30;1.00
20483;DHT22;10400;53.198;6.592;2023-07-20T11:39:06;21.30;1.00
20483;DHT22;10400;53.198;6.592;2023-07-20T11:41:33;21.20;1.00
20483;DHT22;10400;53.198;6.592;2023-07-20T11:43:58;21.40;1.00
20483;DHT22;10400;53.198;6.592;2023-07-20T11:46:24;21.50;1.00
20483;DHT22;10400;53.198;6.592;2023-07-20T11:48:56;21.80;1.00
20483;DHT22;10400;53.198;6.592;2023-07-20T11:51:23;22.10;1.00
20483;DHT22;10400;53.198;6.592;2023-07-20T11:53:49;22.60;1.00
20483;DHT22;10400;53.198;6.592;2023-07-20T11:56:15;22.70;1.00
20483;DHT22;10400;53.198;6.592;2023-07-20T11:58:44;22.10;1.00
20483;DHT22;10400;53.198;6.592;2023-07-20T12:01:11;21.90;1.00
20483;DHT22;10400;53.198;6.592;2023-07-20T12:03:37;21.60;1.00
20483;DHT22;10400;53.198;6.592;2023-07-20T12:06:09;21.50;1.00
20483;DHT22;10400;53.198;6.592;2023-07-20T12:08:38;21.70;1.00
20483;DHT22;10400;53.198;6.592;2023-07-20T12:11:05;22.00;1.00
20483;DHT22;10400;53.198;6.592;2023-07-20T12:13:43;22.10;1.00
20483;DHT22;10400;53.198;6.592;2023-07-20T12:16:15;21.90;1.00
20483;DHT22;10400;53.198;6.592;2023-07-20T12:18:42;21.90;1.00
20483;DHT22;10400;53.198;6.592;2023-07-20T12:21:09;21.70;1.00
20483;DHT22;10400;53.198;6.592;2023-07-20T12:23:39;21.50;1.00
20483;DHT22;10400;53.198;6.592;2023-07-20T12:26:09;21.20;1.00
20483;DHT22;10400;53.198;6.592;2023-07-20T12:28:41;20.80;1.00
20483;DHT22;10400;53.198;6.592;2023-07-20T12:31:10;20.70;1.00
20483;DHT22;10400;53.198;6.592;2023-07-20T12:33:37;20.90;1.00
20483;DHT22;10400;53.198;6.592;2023-07-20T12:36:04;21.40;1.00
20483;DHT22;10400;53.198;6.592;2023-07-20T12:38:30;21.70;1.00
20483;DHT22;10400;53.198;6.592;2023-07-20T12:41:00;22.20;1.00
20483;DHT22;10400;53.198;6.592;2023-07-20T12:43:26;21.80;1.00
20483;DHT22;10400;53.198;6.592;2023-07-20T12:45:52;21.70;1.00
20483;DHT22;10400;53.198;6.592;2023-07-20T12:48:18;21.80;1.00
20483;DHT22;10400;53.198;6.592;2023-07-20T12:50:43;21.40;1.00
20483;DHT22;10400;53.198;6.592;2023-07-20T12:53:09;20.70;1.00
20483;DHT22;10400;53.198;6.592;2023-07-20T12:55:35;20.30;99.90
20483;DHT22;10400;53.198;6.592;2023-07-20T12:58:01;20.10;1.00
20483;DHT22;10400;53.198;6.592;2023-07-20T13:00:26;20.00;99.90
20483;DHT22;10400;53.198;6.592;2023-07-20T13:02:52;19.70;1.00
20483;DHT22;10400;53.198;6.592;2023-07-20T13:05:18;19.50;1.00
20483;DHT22;10400;53.198;6.592;2023-07-20T13:07:43;19.70;1.00
20483;DHT22;10400;53.198;6.592;2023-07-20T13:10:10;19.90;99.90
20483;DHT22;10400;53.198;6.592;2023-07-20T13:12:36;20.20;99.90
20483;DHT22;10400;53.198;6.592;2023-07-20T13:15:04;20.50;99.90
20483;DHT22;10400;53.198;6.592;2023-07-20T13:17:37;21.10;99.90
20483;DHT22;10400;53.198;6.592;2023-07-20T13:20:03;21.50;99.90
20483;DHT22;10400;53.198;6.592;2023-07-20T13:22:39;21.80;1.00
20483;DHT22;10400;53.198;6.592;2023-07-20T13:25:06;22.20;94.70
20483;DHT22;10400;53.198;6.592;2023-07-20T13:27:32;22.10;99.90
20483;DHT22;10400;53.198;6.592;2023-07-20T13:29:58;21.90;99.90
20483;DHT22;10400;53.198;6.592;2023-07-20T13:32:26;21.50;99.90
20483;DHT22;10400;53.198;6.592;2023-07-20T13:34:51;21.40;99.90
20483;DHT22;10400;53.198;6.592;2023-07-20T13:37:17;20.80;1.00
20483;DHT22;10400;53.198;6.592;2023-07-20T13:39:43;20.60;99.90
20483;DHT22;10400;53.198;6.592;2023-07-20T13:42:09;20.30;99.90
20483;DHT22;10400;53.198;6.592;2023-07-20T13:44:36;20.40;1.00
20483;DHT22;10400;53.198;6.592;2023-07-20T13:47:03;20.50;1.00
20483;DHT22;10400;53.198;6.592;2023-07-20T13:49:31;20.60;99.90
20483;DHT22;10400;53.198;6.592;2023-07-20T13:51:57;21.10;1.00
20483;DHT22;10400;53.198;6.592;2023-07-20T13:54:26;21.70;99.90
20483;DHT22;10400;53.198;6.592;2023-07-20T13:56:52;22.00;1.00
20483;DHT22;10400;53.198;6.592;2023-07-20T13:59:18;22.20;1.00
20483;DHT22;10400;53.198;6.592;2023-07-20T14:01:44;22.00;1.00
20483;DHT22;10400;53.198;6.592;2023-07-20T14:04:09;22.00;1.00
20483;DHT22;10400;53.198;6.592;2023-07-20T14:06:35;21.60;1.00
20483;DHT22;10400;53.198;6.592;2023-07-20T14:09:02;21.70;1.00
20483;DHT22;10400;53.198;6.592;2023-07-20T14:11:28;21.60;1.00
20483;DHT22;10400;53.198;6.592;2023-07-20T14:13:54;21.50;1.00
20483;DHT22;10400;53.198;6.592;2023-07-20T14:16:21;21.70;1.00
20483;DHT22;10400;53.198;6.592;2023-07-20T14:18:47;21.90;1.00
20483;DHT22;10400;53.198;6.592;2023-07-20T14:21:17;22.20;1.00
20483;DHT22;10400;53.198;6.592;2023-07-20T14:23:51;22.30;1.00
20483;DHT22;10400;53.198;6.592;2023-07-20T14:26:17;22.40;1.00
20483;DHT22;10400;53.198;6.592;2023-07-20T14:28:43;22.60;1.00
20483;DHT22;10400;53.198;6.592;2023-07-20T14:31:08;22.70;1.00
20483;DHT22;10400;53.198;6.592;2023-07-20T14:33:34;22.70;99.90
20483;DHT22;10400;53.198;6.592;2023-07-20T14:36:00;22.50;99.90
20483;DHT22;10400;53.198;6.592;2023-07-20T14:38:28;22.70;1.00
20483;DHT22;10400;53.198;6.592;2023-07-20T14:40:54;22.60;1.00
20483;DHT22;10400;53.198;6.592;2023-07-20T14:43:20;22.40;1.00
20483;DHT22;10400;53.198;6.592;2023-07-20T14:45:46;22.30;1.00
20483;DHT22;10400;53.198;6.592;2023-07-20T14:48:12;22.50;99.90
20483;DHT22;10400;53.198;6.592;2023-07-20T14:50:37;22.70;1.00
20483;DHT22;10400;53.198;6.592;2023-07-20T14:53:03;22.60;1.00
20483;DHT22;10400;53.198;6.592;2023-07-20T14:55:29;22.90;1.00
20483;DHT22;10400;53.198;6.592;2023-07-20T14:57:54;23.30;99.90
20483;DHT22;10400;53.198;6.592;2023-07-20T15:00:20;23.50;99.90
20483;DHT22;10400;53.198;6.592;2023-07-20T15:02:46;23.40;99.90
20483;DHT22;10400;53.198;6.592;2023-07-20T15:05:12;23.10;99.90
20483;DHT22;10400;53.198;6.592;2023-07-20T15:07:45;22.40;1.00
20483;DHT22;10400;53.198;6.592;2023-07-20T15:10:11;21.80;1.00
20483;DHT22;10400;53.198;6.592;2023-07-20T15:12:36;21.70;1.00
20483;DHT22;10400;53.198;6.592;2023-07-20T15:15:06;21.40;1.00
20483;DHT22;10400;53.198;6.592;2023-07-20T15:17:32;21.40;1.00
20483;DHT22;10400;53.198;6.592;2023-07-20T15:19:58;21.70;1.00
20483;DHT22;10400;53.198;6.592;2023-07-20T15:22:25;22.20;1.00
20483;DHT22;10400;53.198;6.592;2023-07-20T15:24:50;22.40;1.00
20483;DHT22;10400;53.198;6.592;2023-07-20T15:27:16;22.30;1.00
20483;DHT22;10400;53.198;6.592;2023-07-20T15:29:42;22.50;99.90
20483;DHT22;10400;53.198;6.592;2023-07-20T15:32:10;22.30;99.90
20483;DHT22;10400;53.198;6.592;2023-07-20T15:34:35;22.60;99.90
20483;DHT22;10400;53.198;6.592;2023-07-20T15:37:01;22.60;99.90
20483;DHT22;10400;53.198;6.592;2023-07-20T15:39:28;22.80;99.90
20483;DHT22;10400;53.198;6.592;2023-07-20T15:41:54;22.90;99.90
20483;DHT22;10400;53.198;6.592;2023-07-20T15:44:20;22.80;1.00
20483;DHT22;10400;53.198;6.592;2023-07-20T15:46:47;22.50;1.00
20483;DHT22;10400;53.198;6.592;2023-07-20T15:49:13;22.10;1.00
20483;DHT22;10400;53.198;6.592;2023-07-20T15:51:39;22.10;1.00